Backworth, United Kingdom
Current Conditions -  °F | °C
As of 10:20 AM on Thursday 18 Dec 2014 (Local Time) from EGNT Reporting Station
Light Rain Light Rain  
Wind Chill: 13°   Ceiling: Unl
Heat Index: 13°   Visibility: 6mi
Dew Point: 10°   Wind: 22mph
Humidity: 82%   Direction: 250°WSW
Pressure: 29.35"   Gusts: 35mph
Location:  55.04°N, 1.53°W
Report Text: EGNT 181020Z 25019G30KT 9999 -RA SCT015 13/10 Q0994
Loading
Personal Weather Stations






























Interactive Weather Map New forecast layout! Learn more

10-Day Weather Forecast

Advertisements
Track Severe Weather on mobile